sensor_id;sensor_type;location;lat;lon;timestamp;temperature;humidity
34837;DHT22;21053;50.848;4.652;2023-09-12T00:00:06;20.60;99.90
34837;DHT22;21053;50.848;4.652;2023-09-12T00:02:32;20.40;99.90
34837;DHT22;21053;50.848;4.652;2023-09-12T00:04:59;20.50;99.90
34837;DHT22;21053;50.848;4.652;2023-09-12T00:07:26;20.70;99.90
34837;DHT22;21053;50.848;4.652;2023-09-12T00:09:52;20.70;99.90
34837;DHT22;21053;50.848;4.652;2023-09-12T00:12:22;20.70;99.90
34837;DHT22;21053;50.848;4.652;2023-09-12T00:14:49;20.40;99.90
34837;DHT22;21053;50.848;4.652;2023-09-12T00:17:14;20.40;99.90
34837;DHT22;21053;50.848;4.652;2023-09-12T00:19:43;20.50;99.90
34837;DHT22;21053;50.848;4.652;2023-09-12T00:22:09;20.50;99.90
34837;DHT22;21053;50.848;4.652;2023-09-12T00:24:35;20.60;99.90
34837;DHT22;21053;50.848;4.652;2023-09-12T00:27:04;20.80;99.90
34837;DHT22;21053;50.848;4.652;2023-09-12T00:29:32;20.90;99.90
34837;DHT22;21053;50.848;4.652;2023-09-12T00:31:58;21.00;99.90
34837;DHT22;21053;50.848;4.652;2023-09-12T00:34:25;21.00;99.90
34837;DHT22;21053;50.848;4.652;2023-09-12T00:36:51;20.90;99.90
34837;DHT22;21053;50.848;4.652;2023-09-12T00:39:17;20.80;99.90
34837;DHT22;21053;50.848;4.652;2023-09-12T00:41:45;20.60;99.90
34837;DHT22;21053;50.848;4.652;2023-09-12T00:44:17;20.50;99.90
34837;DHT22;21053;50.848;4.652;2023-09-12T00:46:44;20.40;99.90
34837;DHT22;21053;50.848;4.652;2023-09-12T00:49:13;20.40;99.90
34837;DHT22;21053;50.848;4.652;2023-09-12T00:51:39;20.40;99.90
34837;DHT22;21053;50.848;4.652;2023-09-12T00:54:06;20.50;99.90
34837;DHT22;21053;50.848;4.652;2023-09-12T00:56:32;20.60;99.90
34837;DHT22;21053;50.848;4.652;2023-09-12T00:59:00;20.50;99.90
34837;DHT22;21053;50.848;4.652;2023-09-12T01:01:27;20.30;99.90
34837;DHT22;21053;50.848;4.652;2023-09-12T01:03:55;20.50;99.90
34837;DHT22;21053;50.848;4.652;2023-09-12T01:06:24;20.40;99.90
34837;DHT22;21053;50.848;4.652;2023-09-12T01:08:54;20.10;99.90
34837;DHT22;21053;50.848;4.652;2023-09-12T01:11:20;20.10;99.90
34837;DHT22;21053;50.848;4.652;2023-09-12T01:13:46;20.10;99.90
34837;DHT22;21053;50.848;4.652;2023-09-12T01:16:11;20.00;99.90
34837;DHT22;21053;50.848;4.652;2023-09-12T01:18:38;20.10;99.90
34837;DHT22;21053;50.848;4.652;2023-09-12T01:29:25;20.20;99.90
34837;DHT22;21053;50.848;4.652;2023-09-12T01:31:54;20.10;99.90
34837;DHT22;21053;50.848;4.652;2023-09-12T01:34:20;20.10;99.90
34837;DHT22;21053;50.848;4.652;2023-09-12T01:36:47;20.20;99.90
34837;DHT22;21053;50.848;4.652;2023-09-12T01:39:13;20.20;99.90
34837;DHT22;21053;50.848;4.652;2023-09-12T01:41:42;20.20;99.90
34837;DHT22;21053;50.848;4.652;2023-09-12T01:44:12;20.30;99.90
34837;DHT22;21053;50.848;4.652;2023-09-12T01:46:39;20.40;99.90
34837;DHT22;21053;50.848;4.652;2023-09-12T01:49:09;20.30;99.90
34837;DHT22;21053;50.848;4.652;2023-09-12T01:51:37;20.30;99.90
34837;DHT22;21053;50.848;4.652;2023-09-12T01:54:03;20.30;99.90
34837;DHT22;21053;50.848;4.652;2023-09-12T01:56:30;20.20;99.90
34837;DHT22;21053;50.848;4.652;2023-09-12T01:58:58;20.10;99.90
34837;DHT22;21053;50.848;4.652;2023-09-12T02:01:25;19.80;99.90
34837;DHT22;21053;50.848;4.652;2023-09-12T02:03:53;19.60;99.90
34837;DHT22;21053;50.848;4.652;2023-09-12T02:06:20;19.60;99.90
34837;DHT22;21053;50.848;4.652;2023-09-12T02:08:46;19.60;99.90
34837;DHT22;21053;50.848;4.652;2023-09-12T02:11:12;19.70;99.90
34837;DHT22;21053;50.848;4.652;2023-09-12T02:13:38;19.70;99.90
34837;DHT22;21053;50.848;4.652;2023-09-12T02:16:03;19.90;99.90
34837;DHT22;21053;50.848;4.652;2023-09-12T02:18:29;19.90;99.90
34837;DHT22;21053;50.848;4.652;2023-09-12T02:20:58;20.00;99.90
34837;DHT22;21053;50.848;4.652;2023-09-12T02:23:27;20.00;99.90
34837;DHT22;21053;50.848;4.652;2023-09-12T02:25:56;20.10;99.90
34837;DHT22;21053;50.848;4.652;2023-09-12T02:28:25;20.00;99.90
34837;DHT22;21053;50.848;4.652;2023-09-12T02:34:13;19.50;99.90
34837;DHT22;21053;50.848;4.652;2023-09-12T02:36:40;19.70;99.90
34837;DHT22;21053;50.848;4.652;2023-09-12T02:39:07;19.80;99.90
34837;DHT22;21053;50.848;4.652;2023-09-12T02:41:33;19.60;99.90
34837;DHT22;21053;50.848;4.652;2023-09-12T02:43:59;19.40;99.90
34837;DHT22;21053;50.848;4.652;2023-09-12T02:46:26;19.50;99.90
34837;DHT22;21053;50.848;4.652;2023-09-12T02:48:54;19.70;99.90
34837;DHT22;21053;50.848;4.652;2023-09-12T02:51:23;19.70;99.90
34837;DHT22;21053;50.848;4.652;2023-09-12T02:53:50;19.60;99.90
34837;DHT22;21053;50.848;4.652;2023-09-12T02:56:16;19.60;99.90
34837;DHT22;21053;50.848;4.652;2023-09-12T02:58:45;19.60;99.90
34837;DHT22;21053;50.848;4.652;2023-09-12T03:01:15;19.70;99.90
34837;DHT22;21053;50.848;4.652;2023-09-12T03:03:41;19.80;99.90
34837;DHT22;21053;50.848;4.652;2023-09-12T03:06:08;19.60;99.90
34837;DHT22;21053;50.848;4.652;2023-09-12T03:08:35;19.60;99.90
34837;DHT22;21053;50.848;4.652;2023-09-12T03:11:00;19.60;99.90
34837;DHT22;21053;50.848;4.652;2023-09-12T03:13:28;19.60;99.90
34837;DHT22;21053;50.848;4.652;2023-09-12T03:15:55;19.60;99.90
34837;DHT22;21053;50.848;4.652;2023-09-12T03:18:20;19.40;99.90
34837;DHT22;21053;50.848;4.652;2023-09-12T03:20:46;19.50;99.90
34837;DHT22;21053;50.848;4.652;2023-09-12T03:23:12;19.60;99.90
34837;DHT22;21053;50.848;4.652;2023-09-12T03:25:38;19.50;99.90
34837;DHT22;21053;50.848;4.652;2023-09-12T03:28:10;19.70;99.90
34837;DHT22;21053;50.848;4.652;2023-09-12T03:31:06;19.40;99.90
34837;DHT22;21053;50.848;4.652;2023-09-12T03:33:34;19.40;99.90
34837;DHT22;21053;50.848;4.652;2023-09-12T03:36:01;19.70;99.90
34837;DHT22;21053;50.848;4.652;2023-09-12T03:38:29;19.80;99.90
34837;DHT22;21053;50.848;4.652;2023-09-12T03:40:55;19.70;99.90
34837;DHT22;21053;50.848;4.652;2023-09-12T03:43:20;19.80;99.90
34837;DHT22;21053;50.848;4.652;2023-09-12T03:45:46;19.90;99.90
34837;DHT22;21053;50.848;4.652;2023-09-12T03:48:12;20.00;99.90
34837;DHT22;21053;50.848;4.652;2023-09-12T03:50:38;20.10;99.90
34837;DHT22;21053;50.848;4.652;2023-09-12T03:53:06;20.10;99.90
34837;DHT22;21053;50.848;4.652;2023-09-12T03:55:32;20.10;99.90
34837;DHT22;21053;50.848;4.652;2023-09-12T03:57:59;20.10;99.90
34837;DHT22;21053;50.848;4.652;2023-09-12T04:00:25;20.10;99.90
34837;DHT22;21053;50.848;4.652;2023-09-12T04:02:52;20.00;99.90
34837;DHT22;21053;50.848;4.652;2023-09-12T04:05:20;20.10;99.90
34837;DHT22;21053;50.848;4.652;2023-09-12T04:07:48;20.10;99.90
34837;DHT22;21053;50.848;4.652;2023-09-12T04:10:15;20.20;99.90
34837;DHT22;21053;50.848;4.652;2023-09-12T04:12:42;20.20;99.90
34837;DHT22;21053;50.848;4.652;2023-09-12T04:15:08;20.30;99.90
34837;DHT22;21053;50.848;4.652;2023-09-12T04:17:34;19.90;99.90
34837;DHT22;21053;50.848;4.652;2023-09-12T04:20:03;19.50;99.90
34837;DHT22;21053;50.848;4.652;2023-09-12T04:22:33;19.10;99.90
34837;DHT22;21053;50.848;4.652;2023-09-12T04:25:01;19.40;99.90
34837;DHT22;21053;50.848;4.652;2023-09-12T04:27:27;19.60;99.90
34837;DHT22;21053;50.848;4.652;2023-09-12T04:29:54;19.70;99.90
34837;DHT22;21053;50.848;4.652;2023-09-12T04:32:20;19.60;99.90
34837;DHT22;21053;50.848;4.652;2023-09-12T04:34:50;19.60;99.90
34837;DHT22;21053;50.848;4.652;2023-09-12T04:37:18;19.80;99.90
34837;DHT22;21053;50.848;4.652;2023-09-12T04:39:45;19.70;99.90
34837;DHT22;21053;50.848;4.652;2023-09-12T04:42:12;19.80;99.90
34837;DHT22;21053;50.848;4.652;2023-09-12T04:44:40;19.90;99.90
34837;DHT22;21053;50.848;4.652;2023-09-12T04:47:09;20.00;99.90
34837;DHT22;21053;50.848;4.652;2023-09-12T04:49:36;20.20;99.90
34837;DHT22;21053;50.848;4.652;2023-09-12T04:52:02;20.20;99.90
34837;DHT22;21053;50.848;4.652;2023-09-12T04:54:29;20.30;99.90
34837;DHT22;21053;50.848;4.652;2023-09-12T04:56:57;20.30;99.90
34837;DHT22;21053;50.848;4.652;2023-09-12T04:59:24;20.10;99.90
34837;DHT22;21053;50.848;4.652;2023-09-12T05:01:53;19.90;99.90
34837;DHT22;21053;50.848;4.652;2023-09-12T05:04:19;19.40;99.90
34837;DHT22;21053;50.848;4.652;2023-09-12T05:06:46;19.40;99.90
34837;DHT22;21053;50.848;4.652;2023-09-12T05:09:12;19.40;99.90
34837;DHT22;21053;50.848;4.652;2023-09-12T05:11:38;19.50;99.90
34837;DHT22;21053;50.848;4.652;2023-09-12T05:14:04;19.50;99.90
34837;DHT22;21053;50.848;4.652;2023-09-12T05:16:32;19.40;99.90
34837;DHT22;21053;50.848;4.652;2023-09-12T05:19:01;19.40;99.90
34837;DHT22;21053;50.848;4.652;2023-09-12T05:21:28;19.50;99.90
34837;DHT22;21053;50.848;4.652;2023-09-12T05:23:53;19.60;99.90
34837;DHT22;21053;50.848;4.652;2023-09-12T05:26:19;19.70;99.90
34837;DHT22;21053;50.848;4.652;2023-09-12T05:28:46;19.70;99.90
34837;DHT22;21053;50.848;4.652;2023-09-12T05:31:13;19.70;99.90
34837;DHT22;21053;50.848;4.652;2023-09-12T05:33:43;19.70;99.90
34837;DHT22;21053;50.848;4.652;2023-09-12T05:36:10;19.70;99.90
34837;DHT22;21053;50.848;4.652;2023-09-12T05:38:36;19.70;99.90
34837;DHT22;21053;50.848;4.652;2023-09-12T05:41:02;19.50;99.90
34837;DHT22;21053;50.848;4.652;2023-09-12T05:43:27;19.50;99.90
34837;DHT22;21053;50.848;4.652;2023-09-12T05:45:53;19.50;99.90
34837;DHT22;21053;50.848;4.652;2023-09-12T05:48:19;19.40;99.90
34837;DHT22;21053;50.848;4.652;2023-09-12T05:50:45;19.30;99.90
34837;DHT22;21053;50.848;4.652;2023-09-12T05:53:12;19.30;99.90
34837;DHT22;21053;50.848;4.652;2023-09-12T05:55:39;19.30;99.90
34837;DHT22;21053;50.848;4.652;2023-09-12T05:58:05;19.50;99.90
34837;DHT22;21053;50.848;4.652;2023-09-12T06:00:32;19.70;99.90
34837;DHT22;21053;50.848;4.652;2023-09-12T06:02:58;19.80;99.90
34837;DHT22;21053;50.848;4.652;2023-09-12T06:05:24;19.80;99.90
34837;DHT22;21053;50.848;4.652;2023-09-12T06:07:51;19.70;99.90
34837;DHT22;21053;50.848;4.652;2023-09-12T06:10:17;19.60;99.90
34837;DHT22;21053;50.848;4.652;2023-09-12T06:12:44;19.70;99.90
34837;DHT22;21053;50.848;4.652;2023-09-12T06:15:10;19.80;99.90
34837;DHT22;21053;50.848;4.652;2023-09-12T06:17:37;19.90;99.90
34837;DHT22;21053;50.848;4.652;2023-09-12T06:20:06;19.90;99.90
34837;DHT22;21053;50.848;4.652;2023-09-12T06:22:32;19.90;99.90
34837;DHT22;21053;50.848;4.652;2023-09-12T06:24:58;20.00;99.90
34837;DHT22;21053;50.848;4.652;2023-09-12T06:27:23;20.10;99.90
34837;DHT22;21053;50.848;4.652;2023-09-12T06:29:49;19.90;99.90
34837;DHT22;21053;50.848;4.652;2023-09-12T06:32:18;19.70;99.90
34837;DHT22;21053;50.848;4.652;2023-09-12T06:34:45;19.70;99.90
34837;DHT22;21053;50.848;4.652;2023-09-12T06:37:11;19.60;99.90
34837;DHT22;21053;50.848;4.652;2023-09-12T06:39:38;19.60;99.90
34837;DHT22;21053;50.848;4.652;2023-09-12T06:42:04;19.50;99.90
34837;DHT22;21053;50.848;4.652;2023-09-12T06:44:31;19.50;99.90
34837;DHT22;21053;50.848;4.652;2023-09-12T06:46:57;19.70;99.90
34837;DHT22;21053;50.848;4.652;2023-09-12T06:49:23;19.80;99.90
34837;DHT22;21053;50.848;4.652;2023-09-12T06:51:49;20.00;99.90
34837;DHT22;21053;50.848;4.652;2023-09-12T06:54:15;20.00;99.90
34837;DHT22;21053;50.848;4.652;2023-09-12T06:56:41;20.20;99.90
34837;DHT22;21053;50.848;4.652;2023-09-12T06:59:08;20.20;99.90
34837;DHT22;21053;50.848;4.652;2023-09-12T07:01:34;20.30;99.90
34837;DHT22;21053;50.848;4.652;2023-09-12T07:04:01;20.30;99.90
34837;DHT22;21053;50.848;4.652;2023-09-12T07:06:28;20.40;99.90
34837;DHT22;21053;50.848;4.652;2023-09-12T07:08:55;20.30;99.90
34837;DHT22;21053;50.848;4.652;2023-09-12T07:11:20;20.30;99.90
34837;DHT22;21053;50.848;4.652;2023-09-12T07:13:46;20.30;99.90
34837;DHT22;21053;50.848;4.652;2023-09-12T07:16:12;20.40;99.90
34837;DHT22;21053;50.848;4.652;2023-09-12T07:18:41;20.60;99.90
34837;DHT22;21053;50.848;4.652;2023-09-12T07:21:07;20.60;99.90
34837;DHT22;21053;50.848;4.652;2023-09-12T07:23:33;20.90;99.90
34837;DHT22;21053;50.848;4.652;2023-09-12T07:25:59;21.10;99.90
34837;DHT22;21053;50.848;4.652;2023-09-12T07:28:26;21.10;99.90
34837;DHT22;21053;50.848;4.652;2023-09-12T07:30:54;21.00;99.90
34837;DHT22;21053;50.848;4.652;2023-09-12T07:33:20;21.30;99.90
34837;DHT22;21053;50.848;4.652;2023-09-12T07:35:48;21.30;99.90
34837;DHT22;21053;50.848;4.652;2023-09-12T07:38:15;21.40;99.90
34837;DHT22;21053;50.848;4.652;2023-09-12T07:40:42;21.70;99.90
34837;DHT22;21053;50.848;4.652;2023-09-12T07:43:08;22.00;99.90
34837;DHT22;21053;50.848;4.652;2023-09-12T07:45:36;22.30;99.90
34837;DHT22;21053;50.848;4.652;2023-09-12T07:48:08;22.40;99.90
34837;DHT22;21053;50.848;4.652;2023-09-12T07:50:34;22.40;99.90
34837;DHT22;21053;50.848;4.652;2023-09-12T07:53:00;22.70;99.90
34837;DHT22;21053;50.848;4.652;2023-09-12T07:55:26;22.90;99.90
34837;DHT22;21053;50.848;4.652;2023-09-12T07:57:58;23.10;99.90
34837;DHT22;21053;50.848;4.652;2023-09-12T08:00:24;23.10;99.90
34837;DHT22;21053;50.848;4.652;2023-09-12T08:02:51;23.20;99.90
34837;DHT22;21053;50.848;4.652;2023-09-12T08:05:18;23.30;99.90
34837;DHT22;21053;50.848;4.652;2023-09-12T08:07:44;23.10;99.90
34837;DHT22;21053;50.848;4.652;2023-09-12T08:10:11;23.20;99.90
34837;DHT22;21053;50.848;4.652;2023-09-12T08:12:37;23.30;99.90
34837;DHT22;21053;50.848;4.652;2023-09-12T08:15:07;23.10;99.90
34837;DHT22;21053;50.848;4.652;2023-09-12T08:17:33;23.10;99.90
34837;DHT22;21053;50.848;4.652;2023-09-12T08:19:59;23.30;99.90
34837;DHT22;21053;50.848;4.652;2023-09-12T08:22:26;23.20;99.90
34837;DHT22;21053;50.848;4.652;2023-09-12T08:24:52;23.20;99.90
34837;DHT22;21053;50.848;4.652;2023-09-12T08:27:18;23.60;99.90
34837;DHT22;21053;50.848;4.652;2023-09-12T08:29:44;23.90;99.90
34837;DHT22;21053;50.848;4.652;2023-09-12T08:32:14;23.90;99.90
34837;DHT22;21053;50.848;4.652;2023-09-12T08:34:42;23.80;99.90
34837;DHT22;21053;50.848;4.652;2023-09-12T08:37:11;23.80;99.90
34837;DHT22;21053;50.848;4.652;2023-09-12T08:39:45;23.50;99.90
34837;DHT22;21053;50.848;4.652;2023-09-12T08:42:15;23.40;99.90
34837;DHT22;21053;50.848;4.652;2023-09-12T08:44:42;23.50;99.90
34837;DHT22;21053;50.848;4.652;2023-09-12T08:47:11;23.90;99.90
34837;DHT22;21053;50.848;4.652;2023-09-12T08:49:38;24.50;99.90
34837;DHT22;21053;50.848;4.652;2023-09-12T08:52:07;25.20;99.90
34837;DHT22;21053;50.848;4.652;2023-09-12T08:54:33;25.70;99.90
34837;DHT22;21053;50.848;4.652;2023-09-12T08:57:02;25.50;99.90
34837;DHT22;21053;50.848;4.652;2023-09-12T08:59:34;26.00;99.90
34837;DHT22;21053;50.848;4.652;2023-09-12T09:02:01;26.20;99.90
34837;DHT22;21053;50.848;4.652;2023-09-12T09:04:33;26.40;99.90
34837;DHT22;21053;50.848;4.652;2023-09-12T09:07:00;26.10;99.90
34837;DHT22;21053;50.848;4.652;2023-09-12T09:09:27;26.30;99.90
34837;DHT22;21053;50.848;4.652;2023-09-12T09:11:55;26.70;99.90
34837;DHT22;21053;50.848;4.652;2023-09-12T09:14:21;27.30;99.90
34837;DHT22;21053;50.848;4.652;2023-09-12T09:16:48;27.40;99.90
34837;DHT22;21053;50.848;4.652;2023-09-12T09:19:14;27.50;99.90
34837;DHT22;21053;50.848;4.652;2023-09-12T09:21:43;28.00;99.90
34837;DHT22;21053;50.848;4.652;2023-09-12T09:24:12;28.10;99.90
34837;DHT22;21053;50.848;4.652;2023-09-12T09:26:49;28.60;99.60
34837;DHT22;21053;50.848;4.652;2023-09-12T09:29:18;28.90;99.60
34837;DHT22;21053;50.848;4.652;2023-09-12T09:31:47;29.40;98.70
34837;DHT22;21053;50.848;4.652;2023-09-12T09:34:14;29.40;99.30
34837;DHT22;21053;50.848;4.652;2023-09-12T09:36:46;29.90;98.00
34837;DHT22;21053;50.848;4.652;2023-09-12T09:39:13;29.90;96.90
34837;DHT22;21053;50.848;4.652;2023-09-12T09:41:39;29.40;97.20
34837;DHT22;21053;50.848;4.652;2023-09-12T09:44:07;29.50;98.20
34837;DHT22;21053;50.848;4.652;2023-09-12T09:46:33;29.80;96.90
34837;DHT22;21053;50.848;4.652;2023-09-12T09:48:59;30.00;96.90
34837;DHT22;21053;50.848;4.652;2023-09-12T09:51:25;30.40;96.60
34837;DHT22;21053;50.848;4.652;2023-09-12T09:53:52;30.70;96.50
34837;DHT22;21053;50.848;4.652;2023-09-12T09:56:18;30.80;96.00
34837;DHT22;21053;50.848;4.652;2023-09-12T09:58:52;31.20;96.10
34837;DHT22;21053;50.848;4.652;2023-09-12T10:01:30;31.60;95.00
34837;DHT22;21053;50.848;4.652;2023-09-12T10:03:58;30.90;95.00
34837;DHT22;21053;50.848;4.652;2023-09-12T10:06:26;30.50;93.80
34837;DHT22;21053;50.848;4.652;2023-09-12T10:08:53;30.30;95.70
34837;DHT22;21053;50.848;4.652;2023-09-12T10:11:25;30.40;95.20
34837;DHT22;21053;50.848;4.652;2023-09-12T10:13:57;30.80;94.50
34837;DHT22;21053;50.848;4.652;2023-09-12T10:16:30;30.40;93.30
34837;DHT22;21053;50.848;4.652;2023-09-12T10:21:33;30.60;94.20
34837;DHT22;21053;50.848;4.652;2023-09-12T10:24:00;29.70;94.10
34837;DHT22;21053;50.848;4.652;2023-09-12T10:26:28;28.90;97.10
34837;DHT22;21053;50.848;4.652;2023-09-12T10:28:55;29.00;96.10
34837;DHT22;21053;50.848;4.652;2023-09-12T10:31:22;28.60;97.20
34837;DHT22;21053;50.848;4.652;2023-09-12T10:33:51;28.70;96.30
34837;DHT22;21053;50.848;4.652;2023-09-12T10:36:18;29.20;95.90
34837;DHT22;21053;50.848;4.652;2023-09-12T10:38:47;29.80;95.80
34837;DHT22;21053;50.848;4.652;2023-09-12T10:41:15;30.20;95.80
34837;DHT22;21053;50.848;4.652;2023-09-12T10:43:44;30.30;94.70
34837;DHT22;21053;50.848;4.652;2023-09-12T10:46:15;30.30;94.70
34837;DHT22;21053;50.848;4.652;2023-09-12T10:48:41;30.20;94.00
34837;DHT22;21053;50.848;4.652;2023-09-12T10:51:09;30.00;95.90
34837;DHT22;21053;50.848;4.652;2023-09-12T10:53:36;30.10;95.30
34837;DHT22;21053;50.848;4.652;2023-09-12T11:01:33;28.60;95.00
34837;DHT22;21053;50.848;4.652;2023-09-12T11:04:29;28.70;96.90
34837;DHT22;21053;50.848;4.652;2023-09-12T11:06:45;28.70;95.40
34837;DHT22;21053;50.848;4.652;2023-09-12T11:09:25;29.00;98.80
34837;DHT22;21053;50.848;4.652;2023-09-12T11:12:01;29.50;97.70
34837;DHT22;21053;50.848;4.652;2023-09-12T11:14:32;29.60;97.70
34837;DHT22;21053;50.848;4.652;2023-09-12T11:19:49;29.70;96.30
34837;DHT22;21053;50.848;4.652;2023-09-12T11:22:26;29.90;94.20
34837;DHT22;21053;50.848;4.652;2023-09-12T11:24:53;30.10;94.70
34837;DHT22;21053;50.848;4.652;2023-09-12T11:27:22;29.60;95.50
34837;DHT22;21053;50.848;4.652;2023-09-12T11:29:50;30.20;95.00
34837;DHT22;21053;50.848;4.652;2023-09-12T11:32:30;29.90;93.50
34837;DHT22;21053;50.848;4.652;2023-09-12T11:35:04;30.10;94.90
34837;DHT22;21053;50.848;4.652;2023-09-12T11:37:31;30.10;93.90
34837;DHT22;21053;50.848;4.652;2023-09-12T11:40:00;30.00;94.60
34837;DHT22;21053;50.848;4.652;2023-09-12T11:42:26;29.80;94.90
34837;DHT22;21053;50.848;4.652;2023-09-12T11:44:53;29.90;94.40
34837;DHT22;21053;50.848;4.652;2023-09-12T11:47:23;29.90;95.90
34837;DHT22;21053;50.848;4.652;2023-09-12T11:49:49;29.80;95.50
34837;DHT22;21053;50.848;4.652;2023-09-12T11:52:15;29.50;95.20
34837;DHT22;21053;50.848;4.652;2023-09-12T11:54:45;29.70;97.00
34837;DHT22;21053;50.848;4.652;2023-09-12T11:57:13;29.60;94.20
34837;DHT22;21053;50.848;4.652;2023-09-12T11:59:41;28.30;94.30
34837;DHT22;21053;50.848;4.652;2023-09-12T12:02:09;27.60;97.40
34837;DHT22;21053;50.848;4.652;2023-09-12T12:04:35;27.60;97.60
34837;DHT22;21053;50.848;4.652;2023-09-12T12:07:04;27.50;98.90
34837;DHT22;21053;50.848;4.652;2023-09-12T12:09:33;27.20;97.50
34837;DHT22;21053;50.848;4.652;2023-09-12T12:15:03;26.20;97.90
34837;DHT22;21053;50.848;4.652;2023-09-12T12:17:30;26.20;99.50
34837;DHT22;21053;50.848;4.652;2023-09-12T12:19:59;26.60;98.70
34837;DHT22;21053;50.848;4.652;2023-09-12T12:22:25;27.10;97.40
34837;DHT22;21053;50.848;4.652;2023-09-12T12:24:51;27.40;97.30
34837;DHT22;21053;50.848;4.652;2023-09-12T12:27:17;27.60;97.40
34837;DHT22;21053;50.848;4.652;2023-09-12T12:29:49;27.80;97.40
34837;DHT22;21053;50.848;4.652;2023-09-12T12:32:16;27.90;97.70
34837;DHT22;21053;50.848;4.652;2023-09-12T12:34:48;28.00;97.30
34837;DHT22;21053;50.848;4.652;2023-09-12T12:37:20;28.30;96.50
34837;DHT22;21053;50.848;4.652;2023-09-12T12:39:49;28.70;97.30
34837;DHT22;21053;50.848;4.652;2023-09-12T12:42:14;28.60;95.70
34837;DHT22;21053;50.848;4.652;2023-09-12T12:44:41;28.80;95.30
34837;DHT22;21053;50.848;4.652;2023-09-12T12:47:09;28.90;95.10
34837;DHT22;21053;50.848;4.652;2023-09-12T12:49:39;29.00;95.20
34837;DHT22;21053;50.848;4.652;2023-09-12T12:52:09;29.10;94.80
34837;DHT22;21053;50.848;4.652;2023-09-12T12:54:38;29.10;94.90
34837;DHT22;21053;50.848;4.652;2023-09-12T12:57:09;29.20;94.90
34837;DHT22;21053;50.848;4.652;2023-09-12T12:59:38;29.00;95.00
34837;DHT22;21053;50.848;4.652;2023-09-12T13:02:10;28.80;95.20
34837;DHT22;21053;50.848;4.652;2023-09-12T13:04:37;28.70;95.90
34837;DHT22;21053;50.848;4.652;2023-09-12T13:07:04;28.50;95.00
34837;DHT22;21053;50.848;4.652;2023-09-12T13:09:32;28.70;96.20
34837;DHT22;21053;50.848;4.652;2023-09-12T13:12:00;28.20;95.50
34837;DHT22;21053;50.848;4.652;2023-09-12T13:14:27;28.30;96.50
34837;DHT22;21053;50.848;4.652;2023-09-12T13:16:58;28.40;96.80
34837;DHT22;21053;50.848;4.652;2023-09-12T13:19:25;28.40;96.50
34837;DHT22;21053;50.848;4.652;2023-09-12T13:21:53;28.40;96.60
34837;DHT22;21053;50.848;4.652;2023-09-12T13:24:19;28.30;96.20
34837;DHT22;21053;50.848;4.652;2023-09-12T13:26:47;28.30;95.90
34837;DHT22;21053;50.848;4.652;2023-09-12T13:29:14;28.30;96.00
34837;DHT22;21053;50.848;4.652;2023-09-12T13:31:41;28.10;96.20
34837;DHT22;21053;50.848;4.652;2023-09-12T13:34:06;28.00;96.50
34837;DHT22;21053;50.848;4.652;2023-09-12T13:36:33;28.00;97.20
34837;DHT22;21053;50.848;4.652;2023-09-12T13:38:59;28.00;96.70
34837;DHT22;21053;50.848;4.652;2023-09-12T13:41:26;27.90;97.20
34837;DHT22;21053;50.848;4.652;2023-09-12T13:43:51;28.00;97.30
34837;DHT22;21053;50.848;4.652;2023-09-12T13:46:17;28.10;97.80
34837;DHT22;21053;50.848;4.652;2023-09-12T13:48:43;28.00;97.40
34837;DHT22;21053;50.848;4.652;2023-09-12T13:51:08;27.90;97.60
34837;DHT22;21053;50.848;4.652;2023-09-12T13:53:40;27.80;97.30
34837;DHT22;21053;50.848;4.652;2023-09-12T13:56:06;27.80;97.40
34837;DHT22;21053;50.848;4.652;2023-09-12T13:58:34;27.90;97.60
34837;DHT22;21053;50.848;4.652;2023-09-12T14:01:03;27.90;97.40
34837;DHT22;21053;50.848;4.652;2023-09-12T14:03:29;27.80;97.00
34837;DHT22;21053;50.848;4.652;2023-09-12T14:05:58;27.90;96.50
34837;DHT22;21053;50.848;4.652;2023-09-12T14:08:25;27.90;96.90
34837;DHT22;21053;50.848;4.652;2023-09-12T14:10:51;27.70;97.00
34837;DHT22;21053;50.848;4.652;2023-09-12T14:13:18;27.70;97.20
34837;DHT22;21053;50.848;4.652;2023-09-12T14:15:44;27.70;97.10
34837;DHT22;21053;50.848;4.652;2023-09-12T14:18:12;27.70;96.90
34837;DHT22;21053;50.848;4.652;2023-09-12T14:20:40;27.50;97.10
34837;DHT22;21053;50.848;4.652;2023-09-12T14:23:06;27.40;96.80
34837;DHT22;21053;50.848;4.652;2023-09-12T14:25:32;27.50;97.10
34837;DHT22;21053;50.848;4.652;2023-09-12T14:27:58;27.30;97.00
34837;DHT22;21053;50.848;4.652;2023-09-12T14:30:24;27.40;97.00
34837;DHT22;21053;50.848;4.652;2023-09-12T14:33:02;27.30;97.70
34837;DHT22;21053;50.848;4.652;2023-09-12T14:35:30;26.80;98.40
34837;DHT22;21053;50.848;4.652;2023-09-12T14:37:58;26.60;98.20
34837;DHT22;21053;50.848;4.652;2023-09-12T14:40:26;26.50;97.80
34837;DHT22;21053;50.848;4.652;2023-09-12T14:42:56;26.40;97.50
34837;DHT22;21053;50.848;4.652;2023-09-12T14:45:22;26.30;97.80
34837;DHT22;21053;50.848;4.652;2023-09-12T14:47:54;26.30;98.30
34837;DHT22;21053;50.848;4.652;2023-09-12T14:50:22;26.50;97.90
34837;DHT22;21053;50.848;4.652;2023-09-12T14:53:00;26.70;97.50
34837;DHT22;21053;50.848;4.652;2023-09-12T14:57:53;26.40;97.50
34837;DHT22;21053;50.848;4.652;2023-09-12T15:00:23;26.50;97.40
34837;DHT22;21053;50.848;4.652;2023-09-12T15:02:51;26.50;97.30
34837;DHT22;21053;50.848;4.652;2023-09-12T15:05:16;26.60;97.10
34837;DHT22;21053;50.848;4.652;2023-09-12T15:07:42;26.70;97.30
34837;DHT22;21053;50.848;4.652;2023-09-12T15:10:14;26.70;97.70
34837;DHT22;21053;50.848;4.652;2023-09-12T15:12:40;26.70;97.20
34837;DHT22;21053;50.848;4.652;2023-09-12T15:15:07;26.60;97.10
34837;DHT22;21053;50.848;4.652;2023-09-12T15:17:35;26.60;96.90
34837;DHT22;21053;50.848;4.652;2023-09-12T15:20:01;26.70;97.20
34837;DHT22;21053;50.848;4.652;2023-09-12T15:22:32;26.70;97.30
34837;DHT22;21053;50.848;4.652;2023-09-12T15:24:59;26.50;97.80
34837;DHT22;21053;50.848;4.652;2023-09-12T15:27:26;26.50;98.50
34837;DHT22;21053;50.848;4.652;2023-09-12T15:29:51;26.10;98.30
34837;DHT22;21053;50.848;4.652;2023-09-12T15:32:18;26.20;98.20
34837;DHT22;21053;50.848;4.652;2023-09-12T15:34:44;26.20;98.30
34837;DHT22;21053;50.848;4.652;2023-09-12T15:37:11;26.20;98.00
34837;DHT22;21053;50.848;4.652;2023-09-12T15:39:40;26.30;97.50
34837;DHT22;21053;50.848;4.652;2023-09-12T15:42:10;26.20;97.70
34837;DHT22;21053;50.848;4.652;2023-09-12T15:44:37;26.20;98.00
34837;DHT22;21053;50.848;4.652;2023-09-12T15:47:09;26.20;98.30
34837;DHT22;21053;50.848;4.652;2023-09-12T15:49:36;26.20;98.50
34837;DHT22;21053;50.848;4.652;2023-09-12T15:52:04;26.20;98.30
34837;DHT22;21053;50.848;4.652;2023-09-12T15:54:33;26.00;98.50
34837;DHT22;21053;50.848;4.652;2023-09-12T15:57:01;25.90;98.50
34837;DHT22;21053;50.848;4.652;2023-09-12T15:59:31;25.80;98.70